Aviation Digital Data Service (ADDS)

Output produced by METARs form (1437 UTC 19 February 2020)
found at http://aviationweather.gov/metar/data/
 
METAR text: KSHN 191353Z AUTO 00000KT 10SM CLR M04/M06 A3030 RMK AO2 SLP267 T10441056
Conditions at: KSHN (SHELTON , WA, US) observed 1353 UTC 19 February 2020
Temperature: -4.4°C (24°F)
Dewpoint: -5.6°C (22°F) [RH = 91%]
Pressure (altimeter): 30.30 inches Hg (1026.2 mb)
[Sea-level pressure: 1026.7 mb]
Winds: calm
Visibility: 10 or more miles (16+ km)
Ceiling: at least 12,000 feet AGL
Clouds: sky clear below 12,000 feet AGL
Weather: automated observation with no human augmentation;
there may or may not be significant weather present at this time